createdAt,value
2023-04-11T00:02:20.298Z,0.70
2023-04-11T00:06:23.950Z,0.90
2023-04-11T00:10:27.251Z,1.05
2023-04-11T00:14:32.577Z,0.88
2023-04-11T00:18:39.829Z,1.60
2023-04-11T00:22:43.861Z,0.90
2023-04-11T00:26:46.902Z,0.90
2023-04-11T00:30:49.972Z,0.95
2023-04-11T00:34:55.511Z,1.00
2023-04-11T00:38:58.771Z,1.70
2023-04-11T00:43:01.691Z,1.55
2023-04-11T00:47:07.272Z,1.83
2023-04-11T00:51:12.109Z,1.35
2023-04-11T00:55:15.725Z,1.27
2023-04-11T00:59:18.686Z,1.15
2023-04-11T01:03:22.159Z,1.02
2023-04-11T01:11:31.084Z,1.50
2023-04-11T01:15:34.078Z,1.30
2023-04-11T01:19:36.822Z,1.23
2023-04-11T01:23:41.255Z,1.55
2023-04-11T01:27:44.997Z,1.70
2023-04-11T01:35:51.021Z,1.13
2023-04-11T01:39:55.395Z,1.42
2023-04-11T01:43:58.602Z,1.35
2023-04-11T01:48:01.609Z,1.27
2023-04-11T01:52:04.861Z,1.20
2023-04-11T01:56:11.289Z,1.30
2023-04-11T02:00:15.263Z,1.10
2023-04-11T02:04:18.484Z,1.17
2023-04-11T02:08:21.731Z,1.40
2023-04-11T02:12:26.223Z,1.40
2023-04-11T02:16:30.220Z,1.20
2023-04-11T02:20:33.260Z,1.20
2023-04-11T02:24:36.642Z,1.00
2023-04-11T02:28:40.918Z,0.80
2023-04-11T02:32:43.714Z,1.10
2023-04-11T02:36:46.919Z,1.10
2023-04-11T02:40:50.013Z,0.75
2023-04-11T02:44:56.600Z,0.70
2023-04-11T02:48:59.551Z,0.50
2023-04-11T02:53:02.379Z,0.90
2023-04-11T02:57:05.587Z,0.60
2023-04-11T03:01:11.977Z,0.88
2023-04-11T03:05:16.529Z,1.48
2023-04-11T03:09:19.331Z,0.90
2023-04-11T03:13:22.333Z,1.10
2023-04-11T03:17:26.625Z,0.93
2023-04-11T03:21:29.601Z,0.70
2023-04-11T03:25:32.565Z,1.13
2023-04-11T03:29:35.486Z,0.90
2023-04-11T03:33:39.890Z,0.93
2023-04-11T03:37:42.893Z,1.00
2023-04-11T03:41:45.721Z,0.90
2023-04-11T03:45:48.707Z,1.02
2023-04-11T03:49:53.270Z,0.95
2023-04-11T03:53:56.244Z,1.10
2023-04-11T03:57:59.670Z,0.90
2023-04-11T04:02:02.774Z,1.10
2023-04-11T04:06:08.117Z,1.40
2023-04-11T04:10:11.217Z,1.17
2023-04-11T04:14:14.620Z,1.08
2023-04-11T04:18:17.702Z,1.92
2023-04-11T04:22:22.374Z,1.38
2023-04-11T04:26:25.960Z,1.70
2023-04-11T04:30:29.694Z,1.40
2023-04-11T04:34:32.576Z,1.48
2023-04-11T04:38:38.491Z,1.60
2023-04-11T04:42:43.238Z,1.90
2023-04-11T04:46:46.090Z,2.15
2023-04-11T04:50:49.134Z,2.13
2023-04-11T04:54:53.823Z,1.80
2023-04-11T04:58:56.915Z,2.00
2023-04-11T05:02:59.873Z,1.67
2023-04-11T05:07:02.899Z,1.60
2023-04-11T05:11:07.261Z,1.90
2023-04-11T05:15:11.803Z,1.77
2023-04-11T05:19:14.782Z,1.83
2023-04-11T05:23:17.685Z,1.70
2023-04-11T05:27:22.003Z,2.03
2023-04-11T05:31:25.734Z,2.17
2023-04-11T05:35:28.521Z,2.10
2023-04-11T05:39:31.400Z,2.17
2023-04-11T05:43:35.673Z,2.22
2023-04-11T05:47:38.886Z,1.80
2023-04-11T05:51:41.709Z,1.77
2023-04-11T05:55:44.525Z,2.22
2023-04-11T05:59:57.349Z,1.77
2023-04-11T06:04:00.523Z,1.63
2023-04-11T06:08:04.560Z,1.80
2023-04-11T06:12:08.144Z,2.10
2023-04-11T06:16:19.118Z,1.70
2023-04-11T06:20:29.827Z,2.03
2023-04-11T06:24:36.758Z,1.75
2023-04-11T06:28:39.708Z,1.70
2023-04-11T06:32:47.169Z,1.50
2023-04-11T06:36:51.072Z,1.95
2023-04-11T06:44:57.405Z,1.45
2023-04-11T06:49:03.436Z,1.50
2023-04-11T06:53:06.349Z,1.80
2023-04-11T06:57:10.575Z,1.50
2023-04-11T07:01:14.692Z,1.50
2023-04-11T07:05:19.489Z,1.77
2023-04-11T07:09:23.050Z,2.20
2023-04-11T07:13:25.970Z,2.08
2023-04-11T07:17:29.059Z,1.60
2023-04-11T07:21:33.445Z,1.92
2023-04-11T07:25:37.088Z,1.45
2023-04-11T07:29:41.147Z,1.75
2023-04-11T07:33:44.528Z,1.92
2023-04-11T07:37:48.948Z,1.75
2023-04-11T07:41:52.422Z,1.40
2023-04-11T07:45:57.000Z,1.27
2023-04-11T07:49:59.902Z,1.23
2023-04-11T07:54:04.259Z,1.48
2023-04-11T07:58:07.237Z,1.42
2023-04-11T08:02:10.154Z,1.00
2023-04-11T08:06:13.692Z,1.45
2023-04-11T08:14:20.768Z,1.88
2023-04-11T08:18:24.356Z,1.52
2023-04-11T08:26:32.152Z,1.40
2023-04-11T08:30:35.471Z,1.35
2023-04-11T08:34:38.725Z,1.73
2023-04-11T08:38:41.773Z,1.35
2023-04-11T08:42:45.835Z,1.50
2023-04-11T08:46:48.931Z,1.52
2023-04-11T08:50:51.657Z,1.77
2023-04-11T08:54:55.885Z,1.33
2023-04-11T08:59:00.150Z,1.60
2023-04-11T09:03:04.236Z,1.10
2023-04-11T09:07:07.210Z,1.27
2023-04-11T09:11:09.913Z,1.35
2023-04-11T09:15:21.090Z,1.17
2023-04-11T09:19:27.715Z,0.80
2023-04-11T09:23:30.594Z,1.15
2023-04-11T09:27:33.296Z,1.58
2023-04-11T09:31:45.273Z,1.25
2023-04-11T09:35:48.821Z,1.40
2023-04-11T09:39:59.538Z,1.10
2023-04-11T09:44:02.598Z,1.00
2023-04-11T09:48:07.305Z,1.30
2023-04-11T09:52:10.064Z,1.30
2023-04-11T09:56:13.286Z,1.30
2023-04-11T10:00:18.561Z,1.17
2023-04-11T10:04:22.884Z,1.58
2023-04-11T10:08:30.522Z,1.10
2023-04-11T10:12:33.959Z,1.23
2023-04-11T10:20:47.372Z,0.90
2023-04-11T10:25:16.970Z,1.27
2023-04-11T10:29:50.718Z,1.02
2023-04-11T10:34:15.077Z,1.05
2023-04-11T10:38:51.036Z,1.30
2023-04-11T10:42:54.009Z,1.42
2023-04-11T10:46:57.167Z,1.10
2023-04-11T10:55:17.147Z,1.20
2023-04-11T10:59:53.195Z,0.75
2023-04-11T11:03:59.712Z,1.10
2023-04-11T11:08:03.002Z,1.10
2023-04-11T11:12:08.568Z,0.98
2023-04-11T11:16:15.909Z,1.20
2023-04-11T11:20:20.340Z,1.27
2023-04-11T11:24:26.211Z,1.15
2023-04-11T11:28:31.106Z,1.20
2023-04-11T11:32:34.426Z,1.10
2023-04-11T11:36:41.320Z,1.13
2023-04-11T11:40:44.329Z,1.13
2023-04-11T11:44:48.683Z,1.27
2023-04-11T11:49:00.030Z,1.20
2023-04-11T11:53:14.335Z,1.00
2023-04-11T11:57:22.699Z,1.08
2023-04-11T12:01:27.008Z,1.15
2023-04-11T12:05:32.653Z,1.00
2023-04-11T12:09:36.187Z,0.88
2023-04-11T12:13:39.125Z,1.00
2023-04-11T12:17:43.653Z,0.90
2023-04-11T12:21:46.515Z,0.90
2023-04-11T12:25:49.368Z,1.27
2023-04-11T12:29:52.136Z,1.58
2023-04-11T12:33:57.441Z,1.00
2023-04-11T12:38:00.661Z,0.80
2023-04-11T12:42:03.489Z,1.02
2023-04-11T12:46:07.762Z,1.10
2023-04-11T12:50:12.591Z,1.00
2023-04-11T12:54:15.749Z,1.00
2023-04-11T13:02:21.817Z,1.00
2023-04-11T13:06:26.330Z,0.98
2023-04-11T13:10:29.144Z,0.70
2023-04-11T13:14:32.495Z,1.00
2023-04-11T13:22:39.829Z,0.88
2023-04-11T13:26:44.854Z,1.02
2023-04-11T13:30:47.694Z,1.02
2023-04-11T13:34:51.890Z,1.10
2023-04-11T13:38:57.382Z,1.02
2023-04-11T13:43:01.260Z,1.25
2023-04-11T13:47:04.498Z,1.08
2023-04-11T13:51:07.727Z,1.10
2023-04-11T13:55:12.096Z,0.68
2023-04-11T13:59:15.140Z,1.08
2023-04-11T14:07:21.121Z,1.15
2023-04-11T14:11:25.808Z,1.15
2023-04-11T14:15:28.662Z,1.15
2023-04-11T14:19:31.435Z,0.93
2023-04-11T14:23:34.501Z,0.98
2023-04-11T14:27:39.061Z,0.90
2023-04-11T14:31:42.297Z,0.98
2023-04-11T14:35:47.426Z,0.95
2023-04-11T14:39:50.391Z,1.20
2023-04-11T14:43:54.868Z,1.25
2023-04-11T14:47:58.061Z,0.98
2023-04-11T14:52:01.277Z,0.98
2023-04-11T14:56:06.153Z,0.90
2023-04-11T15:00:18.110Z,1.70
2023-04-11T15:04:21.094Z,1.23
2023-04-11T15:08:23.944Z,0.93
2023-04-11T15:12:26.779Z,0.90
2023-04-11T15:16:31.212Z,1.90
2023-04-11T15:20:34.055Z,1.10
2023-04-11T15:24:36.883Z,1.10
2023-04-11T15:28:40.477Z,1.05
2023-04-11T15:32:44.886Z,1.00
2023-04-11T15:36:47.610Z,0.85
2023-04-11T15:40:51.399Z,1.10
2023-04-11T15:44:54.862Z,1.65
2023-04-11T15:53:01.425Z,1.20
2023-04-11T15:57:04.651Z,1.30
2023-04-11T16:01:08.316Z,1.60
2023-04-11T16:05:12.658Z,1.17
2023-04-11T16:09:15.700Z,1.30
2023-04-11T16:13:18.494Z,1.10
2023-04-11T16:17:21.724Z,1.35
2023-04-11T16:21:26.296Z,0.95
2023-04-11T16:25:29.160Z,0.90
2023-04-11T16:29:31.898Z,1.00
2023-04-11T16:33:34.607Z,1.30
2023-04-11T16:37:38.595Z,1.00
2023-04-11T16:41:41.479Z,1.25
2023-04-11T16:45:44.700Z,1.20
2023-04-11T16:49:47.608Z,2.00
2023-04-11T16:53:53.224Z,1.30
2023-04-11T16:57:56.014Z,1.20
2023-04-11T17:01:58.896Z,1.35
2023-04-11T17:06:01.827Z,1.48
2023-04-11T17:10:07.143Z,1.50
2023-04-11T17:14:10.839Z,1.50
2023-04-11T17:22:16.631Z,1.27
2023-04-11T17:26:21.006Z,1.38
2023-04-11T17:30:23.917Z,1.45
2023-04-11T17:34:27.357Z,1.23
2023-04-11T17:38:30.029Z,1.30
2023-04-11T17:42:34.183Z,1.20
2023-04-11T17:46:37.269Z,1.23
2023-04-11T17:50:40.091Z,1.20
2023-04-11T17:54:43.046Z,1.20
2023-04-11T17:58:48.124Z,1.02
2023-04-11T18:02:52.668Z,1.50
2023-04-11T18:06:56.060Z,0.98
2023-04-11T18:10:59.277Z,1.23
2023-04-11T18:15:03.884Z,1.23
2023-04-11T18:19:06.748Z,1.20
2023-04-11T18:23:09.555Z,1.30
2023-04-11T18:27:12.467Z,1.10
2023-04-11T18:31:16.886Z,1.13
2023-04-11T18:35:20.016Z,1.27
2023-04-11T18:39:23.592Z,1.30
2023-04-11T18:43:26.321Z,1.13
2023-04-11T18:47:30.872Z,1.20
2023-04-11T18:51:35.539Z,1.20
2023-04-11T18:55:39.626Z,1.98
2023-04-11T18:59:44.476Z,1.88
2023-04-11T19:03:49.441Z,2.10
2023-04-11T19:07:52.893Z,2.50
2023-04-11T19:11:55.842Z,2.42
2023-04-11T19:15:58.597Z,2.63
2023-04-11T19:20:06.523Z,2.97
2023-04-11T19:24:09.738Z,3.55
2023-04-11T19:28:12.592Z,3.00
2023-04-11T19:32:17.643Z,4.22
2023-04-11T19:36:22.413Z,3.40
2023-04-11T19:40:25.096Z,3.80
2023-04-11T19:44:30.609Z,4.28
2023-04-11T19:48:33.662Z,4.07
2023-04-11T19:52:37.881Z,3.42
2023-04-11T19:56:44.354Z,3.80
2023-04-11T20:00:47.393Z,3.90
2023-04-11T20:04:50.606Z,3.83
2023-04-11T20:08:54.796Z,3.75
2023-04-11T20:12:57.676Z,3.10
2023-04-11T20:17:00.884Z,3.30
2023-04-11T20:21:06.293Z,3.15
2023-04-11T20:25:11.837Z,3.40
2023-04-11T20:29:17.966Z,3.42
2023-04-11T20:33:20.967Z,2.40
2023-04-11T20:37:23.944Z,2.88
2023-04-11T20:41:28.292Z,4.00
2023-04-11T20:45:33.108Z,3.00
2023-04-11T20:49:36.223Z,3.28
2023-04-11T20:53:39.092Z,2.00
2023-04-11T20:57:44.663Z,2.08
2023-04-11T21:01:48.549Z,1.92
2023-04-11T21:09:56.366Z,2.20
2023-04-11T21:14:00.773Z,2.10
2023-04-11T21:18:06.831Z,2.00
2023-04-11T21:22:10.535Z,2.08
2023-04-11T21:26:13.414Z,2.10
2023-04-11T21:30:17.897Z,2.20
2023-04-11T21:34:21.104Z,2.95
2023-04-11T21:38:24.142Z,2.63
2023-04-11T21:42:27.212Z,2.60
2023-04-11T21:46:32.199Z,3.10
2023-04-11T21:50:35.571Z,3.33
2023-04-11T21:54:38.838Z,2.90
2023-04-11T21:58:42.047Z,2.67
2023-04-11T22:02:46.625Z,3.08
2023-04-11T22:06:49.578Z,2.92
2023-04-11T22:10:54.314Z,3.63
2023-04-11T22:14:57.420Z,2.88
2023-04-11T22:19:02.519Z,3.78
2023-04-11T22:23:06.461Z,3.17
2023-04-11T22:27:10.395Z,2.72
2023-04-11T22:35:18.881Z,3.13
2023-04-11T22:39:22.499Z,3.38
2023-04-11T22:43:25.791Z,2.60
2023-04-11T22:47:28.691Z,3.28
2023-04-11T22:51:33.511Z,2.92
2023-04-11T22:55:40.061Z,2.47
2023-04-11T22:59:43.169Z,2.35
2023-04-11T23:03:46.071Z,2.53
2023-04-11T23:07:50.730Z,2.78
2023-04-11T23:11:53.668Z,2.15
2023-04-11T23:15:57.234Z,2.70
2023-04-11T23:20:01.884Z,2.25
2023-04-11T23:24:07.065Z,1.95
2023-04-11T23:28:10.027Z,1.95
2023-04-11T23:32:12.734Z,2.28
2023-04-11T23:36:16.767Z,2.13
2023-04-11T23:40:21.464Z,2.15
2023-04-11T23:44:24.316Z,1.80
2023-04-11T23:48:27.389Z,1.63
2023-04-11T23:52:31.209Z,1.75
2023-04-11T23:56:35.411Z,1.55
